createdAt,value
2019-04-11T00:00:59.558Z,12.77
2019-04-11T00:03:30.578Z,13.97
2019-04-11T00:06:01.438Z,11.97
2019-04-11T00:08:32.232Z,11.93
2019-04-11T00:11:04.082Z,12.53
2019-04-11T00:13:36.425Z,9.60
2019-04-11T00:16:08.839Z,12.07
2019-04-11T00:18:40.928Z,14.70
2019-04-11T00:21:12.765Z,12.30
2019-04-11T00:23:43.644Z,11.37
2019-04-11T00:26:14.502Z,10.73
2019-04-11T00:28:45.795Z,15.53
2019-04-11T00:31:16.966Z,12.73
2019-04-11T00:33:48.743Z,14.07
2019-04-11T00:36:20.043Z,15.57
2019-04-11T00:38:50.977Z,11.10
2019-04-11T00:41:21.828Z,13.87
2019-04-11T00:43:52.616Z,14.70
2019-04-11T00:46:24.553Z,12.80
2019-04-11T00:48:55.446Z,14.83
2019-04-11T00:51:26.289Z,12.60
2019-04-11T00:53:58.670Z,18.33
2019-04-11T00:56:30.488Z,13.87
2019-04-11T00:59:02.488Z,12.17
2019-04-11T01:01:33.692Z,14.37
2019-04-11T01:04:04.516Z,12.93
2019-04-11T01:06:36.507Z,15.50
2019-04-11T01:09:09.472Z,14.77
2019-04-11T01:11:40.713Z,15.13
2019-04-11T01:14:11.465Z,13.20
2019-04-11T01:16:50.682Z,11.57
2019-04-11T01:19:22.533Z,15.83
2019-04-11T01:21:53.370Z,15.40
2019-04-11T01:24:24.034Z,11.90
2019-04-11T01:26:54.742Z,16.90
2019-04-11T01:29:25.858Z,15.40
2019-04-11T01:32:02.247Z,10.80
2019-04-11T01:34:33.419Z,17.17
2019-04-11T01:37:04.162Z,14.37
2019-04-11T01:39:57.258Z,11.63
2019-04-11T01:42:28.737Z,17.70
2019-04-11T01:45:01.036Z,12.77
2019-04-11T01:47:53.315Z,13.27
2019-04-11T01:50:30.523Z,13.20
2019-04-11T02:08:47.178Z,14.10
2019-04-11T02:11:18.232Z,13.17
2019-04-11T02:13:50.249Z,11.90
2019-04-11T02:16:21.402Z,13.10
2019-04-11T02:18:52.122Z,12.03
2019-04-11T02:21:22.911Z,14.93
2019-04-11T02:23:59.673Z,15.33
2019-04-11T02:26:33.840Z,14.17
2019-04-11T02:29:05.521Z,12.67
2019-04-11T02:31:36.944Z,18.03
2019-04-11T02:34:08.783Z,13.27
2019-04-11T02:36:42.796Z,15.73
2019-04-11T02:39:17.635Z,19.13
2019-04-11T02:41:46.841Z,15.37
2019-04-11T02:44:50.924Z,13.40
2019-04-11T02:47:00.697Z,13.47
2019-04-11T02:49:24.284Z,16.73
2019-04-11T02:51:56.179Z,13.70
2019-04-11T02:54:28.226Z,19.60
2019-04-11T02:57:00.444Z,15.20
2019-04-11T02:59:31.954Z,11.60
2019-04-11T03:02:04.507Z,14.63
2019-04-11T03:04:36.989Z,16.73
2019-04-11T03:07:12.138Z,13.93
2019-04-11T03:09:44.044Z,14.47
2019-04-11T03:12:16.249Z,17.43
2019-04-11T03:15:05.417Z,14.67
2019-04-11T03:17:26.174Z,19.23
2019-04-11T03:20:02.803Z,14.97
2019-04-11T03:22:26.560Z,15.23
2019-04-11T03:25:00.050Z,14.87
2019-04-11T03:27:30.564Z,19.50
2019-04-11T03:30:02.960Z,17.70
2019-04-11T03:33:32.887Z,15.87
2019-04-11T03:35:59.544Z,14.20
2019-04-11T03:38:05.873Z,16.53
2019-04-11T03:40:30.478Z,16.10
2019-04-11T03:43:04.424Z,14.87
2019-04-11T03:45:38.654Z,16.80
2019-04-11T03:48:10.094Z,18.13
2019-04-11T03:50:32.324Z,17.07
2019-04-11T03:53:04.773Z,17.50
2019-04-11T03:55:36.863Z,17.03
2019-04-11T03:58:09.042Z,24.87
2019-04-11T04:00:43.904Z,19.17
2019-04-11T04:03:14.200Z,16.67
2019-04-11T04:05:45.218Z,18.97
2019-04-11T04:08:17.808Z,20.87
2019-04-11T04:11:09.175Z,18.93
2019-04-11T04:13:45.602Z,18.23
2019-04-11T04:16:46.825Z,18.20
2019-04-11T04:19:25.137Z,20.13
2019-04-11T04:22:20.095Z,20.43
2019-04-11T04:24:52.904Z,23.33
2019-04-11T04:27:27.440Z,21.57
2019-04-11T04:29:59.561Z,21.93
2019-04-11T04:32:32.401Z,21.10
2019-04-11T04:35:07.009Z,20.30
2019-04-11T04:37:41.011Z,23.13
2019-04-11T04:40:26.894Z,21.53
2019-04-11T04:42:50.327Z,23.93
2019-04-11T04:45:19.358Z,27.17
2019-04-11T04:47:56.943Z,21.50
2019-04-11T04:50:24.465Z,23.80
2019-04-11T04:52:58.195Z,25.80
2019-04-11T04:55:30.356Z,20.53
2019-04-11T04:58:02.595Z,23.87
2019-04-11T05:00:34.873Z,25.53
2019-04-11T05:03:10.378Z,23.07
2019-04-11T05:05:42.515Z,25.40
2019-04-11T05:08:14.480Z,23.33
2019-04-11T05:11:09.473Z,27.07
2019-04-11T05:13:40.908Z,24.03
2019-04-11T05:16:17.343Z,27.57
2019-04-11T05:18:45.066Z,26.00
2019-04-11T05:21:17.009Z,26.57
2019-04-11T05:23:48.077Z,28.87
2019-04-11T05:26:19.383Z,28.53
2019-04-11T05:28:51.002Z,28.73
2019-04-11T05:31:23.013Z,29.13
2019-04-11T05:33:53.971Z,27.40
2019-04-11T05:36:24.811Z,29.97
2019-04-11T05:38:56.575Z,26.83
2019-04-11T05:41:35.005Z,28.73
2019-04-11T05:44:08.869Z,28.80
2019-04-11T05:46:49.173Z,26.90
2019-04-11T05:49:21.176Z,26.93
2019-04-11T05:52:00.470Z,27.00
2019-04-11T05:54:42.837Z,28.23
2019-04-11T05:57:13.254Z,24.80
2019-04-11T05:59:49.330Z,24.37
2019-04-11T06:02:43.710Z,26.37
2019-04-11T06:05:23.879Z,27.50
2019-04-11T06:07:58.063Z,30.60
2019-04-11T06:10:42.855Z,27.67
2019-04-11T06:13:16.373Z,26.20
2019-04-11T06:15:49.829Z,26.67
2019-04-11T06:18:37.227Z,31.00
2019-04-11T06:21:11.683Z,27.40
2019-04-11T06:24:09.703Z,32.97
2019-04-11T06:26:52.912Z,24.90
2019-04-11T06:29:32.230Z,24.87
2019-04-11T06:32:22.188Z,27.87
2019-04-11T06:34:59.712Z,25.57
2019-04-11T06:38:03.994Z,22.83
2019-04-11T06:40:46.004Z,26.43
2019-04-11T06:43:27.839Z,30.13
2019-04-11T06:46:51.748Z,30.63
2019-04-11T06:49:38.421Z,23.03
2019-04-11T06:52:10.713Z,29.73
2019-04-11T06:55:02.777Z,16.20
2019-04-11T06:57:48.112Z,31.40
2019-04-11T07:00:19.086Z,21.20
2019-04-11T07:02:55.157Z,28.20
2019-04-11T07:05:28.855Z,25.30
2019-04-11T07:08:00.026Z,26.63
2019-04-11T07:10:36.649Z,22.73
2019-04-11T07:13:12.234Z,23.97
2019-04-11T07:15:57.438Z,25.07
2019-04-11T07:18:57.042Z,22.07
2019-04-11T07:21:33.818Z,20.40
2019-04-11T07:24:22.414Z,20.77
2019-04-11T07:26:59.452Z,17.47
2019-04-11T07:29:44.501Z,23.37
2019-04-11T07:32:18.018Z,19.93
2019-04-11T07:35:06.932Z,22.43
2019-04-11T07:37:47.467Z,20.27
2019-04-11T07:40:39.211Z,26.10
2019-04-11T07:43:24.944Z,18.60
2019-04-11T07:46:25.211Z,18.73
2019-04-11T07:49:01.635Z,16.10
2019-04-11T07:51:38.521Z,18.10
2019-04-11T07:54:15.883Z,21.80
2019-04-11T07:57:00.126Z,19.87
2019-04-11T07:59:49.083Z,16.70
2019-04-11T08:02:39.776Z,15.13
2019-04-11T08:05:39.003Z,18.97
2019-04-11T08:08:23.051Z,16.07
2019-04-11T08:11:11.597Z,16.70
2019-04-11T08:14:10.487Z,17.53
2019-04-11T08:17:11.973Z,13.97
2019-04-11T08:20:03.265Z,13.13
2019-04-11T08:22:41.202Z,14.07
2019-04-11T08:25:29.801Z,14.93
2019-04-11T08:28:07.613Z,15.03
2019-04-11T08:30:43.882Z,17.27
2019-04-11T08:33:28.701Z,17.03
2019-04-11T08:36:30.081Z,15.03
2019-04-11T08:39:03.006Z,14.97
2019-04-11T08:41:51.696Z,14.30
2019-04-11T08:44:26.518Z,14.57
2019-04-11T08:47:04.755Z,14.17
2019-04-11T08:49:43.855Z,14.00
2019-04-11T08:52:36.484Z,14.77
2019-04-11T08:55:21.138Z,11.97
2019-04-11T08:58:00.351Z,22.60
2019-04-11T09:00:38.078Z,14.07
2019-04-11T09:03:59.288Z,14.20
2019-04-11T09:06:23.266Z,13.97
2019-04-11T09:09:19.095Z,12.93
2019-04-11T09:11:56.245Z,13.03
2019-04-11T09:14:53.064Z,13.33
2019-04-11T09:17:34.249Z,12.13
2019-04-11T09:20:41.114Z,11.77
2019-04-11T09:23:19.750Z,12.83
2019-04-11T09:26:10.170Z,11.30
2019-04-11T09:28:53.669Z,10.63
2019-04-11T09:31:43.722Z,10.43
2019-04-11T09:34:33.586Z,12.03
2019-04-11T09:37:18.438Z,12.03
2019-04-11T09:40:23.961Z,13.07
2019-04-11T09:43:19.897Z,12.77
2019-04-11T09:46:24.006Z,10.37
2019-04-11T09:49:13.639Z,11.60
2019-04-11T09:52:02.566Z,11.60
2019-04-11T09:54:52.893Z,13.60
2019-04-11T09:57:32.393Z,9.40
2019-04-11T10:00:22.915Z,12.57
2019-04-11T10:03:19.753Z,13.60
2019-04-11T10:06:09.460Z,14.03
2019-04-11T10:08:44.079Z,11.70
2019-04-11T10:11:32.566Z,12.40
2019-04-11T10:14:10.538Z,10.10
2019-04-11T10:17:00.490Z,11.90
2019-04-11T10:19:42.400Z,12.83
2019-04-11T10:22:41.502Z,8.90
2019-04-11T10:25:16.974Z,11.77
2019-04-11T10:28:05.321Z,11.37
2019-04-11T10:31:02.763Z,11.63
2019-04-11T10:33:42.502Z,11.93
2019-04-11T10:36:31.561Z,12.87
2019-04-11T10:39:21.487Z,10.50
2019-04-11T10:41:55.956Z,10.53
2019-04-11T10:44:40.876Z,9.50
2019-04-11T10:47:16.566Z,13.80
2019-04-11T10:50:19.578Z,16.43
2019-04-11T10:52:55.631Z,13.40
2019-04-11T10:55:37.843Z,11.07
2019-04-11T10:58:13.067Z,9.73
2019-04-11T11:01:03.980Z,12.60
2019-04-11T11:03:47.229Z,10.73
2019-04-11T11:06:21.864Z,11.03
2019-04-11T11:09:10.729Z,14.93
2019-04-11T11:12:05.788Z,12.30
2019-04-11T11:14:55.303Z,12.80
2019-04-11T11:18:00.979Z,10.77
2019-04-11T11:20:38.554Z,15.50
2019-04-11T11:23:30.976Z,13.30
2019-04-11T11:26:26.178Z,13.10
2019-04-11T11:29:26.503Z,11.20
2019-04-11T11:32:00.845Z,13.00
2019-04-11T11:35:01.158Z,14.03
2019-04-11T11:37:49.792Z,13.43
2019-04-11T11:40:40.960Z,13.87
2019-04-11T11:43:31.085Z,14.47
2019-04-11T11:46:19.684Z,13.20
2019-04-11T11:48:54.450Z,13.60
2019-04-11T11:51:39.532Z,12.63
2019-04-11T11:54:39.716Z,14.30
2019-04-11T11:57:15.335Z,15.00
2019-04-11T12:00:01.138Z,13.20
2019-04-11T12:02:51.972Z,14.50
2019-04-11T12:05:27.022Z,15.27
2019-04-11T12:08:30.794Z,15.27
2019-04-11T12:11:08.146Z,14.27
2019-04-11T12:14:02.079Z,14.27
2019-04-11T12:16:54.818Z,13.63
2019-04-11T12:19:51.138Z,15.77
2019-04-11T12:22:20.110Z,12.60
2019-04-11T12:25:00.578Z,15.13
2019-04-11T12:27:56.528Z,10.80
2019-04-11T12:30:44.994Z,12.93
2019-04-11T12:33:37.499Z,11.10
2019-04-11T12:36:10.711Z,11.67
2019-04-11T12:38:59.962Z,13.53
2019-04-11T12:41:53.003Z,11.73
2019-04-11T12:44:51.544Z,13.40
2019-04-11T12:47:26.899Z,13.50
2019-04-11T12:50:28.617Z,16.17
2019-04-11T12:53:19.389Z,13.60
2019-04-11T12:56:16.988Z,14.03
2019-04-11T12:59:15.599Z,12.23
2019-04-11T13:02:04.341Z,12.63
2019-04-11T13:04:39.464Z,12.93
2019-04-11T13:07:32.980Z,12.47
2019-04-11T13:10:33.884Z,15.07
2019-04-11T13:13:23.600Z,14.13
2019-04-11T13:16:12.754Z,12.40
2019-04-11T13:19:04.357Z,11.83
2019-04-11T13:21:50.203Z,15.13
2019-04-11T13:24:42.739Z,11.20
2019-04-11T13:27:18.853Z,14.03
2019-04-11T13:30:08.665Z,11.87
2019-04-11T13:32:50.117Z,12.83
2019-04-11T13:35:38.356Z,14.10
2019-04-11T13:38:14.626Z,10.67
2019-04-11T13:41:08.697Z,12.30
2019-04-11T13:44:21.208Z,13.00
2019-04-11T13:47:12.387Z,11.33
2019-04-11T13:49:50.210Z,13.60
2019-04-11T13:52:40.198Z,12.10
2019-04-11T13:55:29.331Z,13.60
2019-04-11T13:58:17.663Z,11.93
2019-04-11T14:00:51.029Z,10.63
2019-04-11T14:03:40.786Z,12.73
2019-04-11T14:06:19.559Z,11.23
2019-04-11T14:09:24.510Z,14.00
2019-04-11T14:12:08.210Z,12.33
2019-04-11T14:14:58.006Z,13.50
2019-04-11T14:17:46.886Z,11.67
2019-04-11T14:20:29.747Z,15.77
2019-04-11T14:23:24.958Z,13.60
2019-04-11T14:26:13.586Z,12.40
2019-04-11T14:29:03.733Z,13.00
2019-04-11T14:32:05.635Z,14.17
2019-04-11T14:34:54.298Z,12.27
2019-04-11T14:37:44.480Z,17.43
2019-04-11T14:40:33.363Z,13.93
2019-04-11T14:43:16.854Z,13.40
2019-04-11T14:46:12.994Z,12.27
2019-04-11T14:48:45.625Z,12.83
2019-04-11T14:51:28.742Z,13.37
2019-04-11T14:54:07.758Z,13.73
2019-04-11T14:56:44.067Z,13.53
2019-04-11T14:59:30.725Z,17.17
2019-04-11T15:02:08.902Z,15.20
2019-04-11T15:05:01.527Z,12.60
2019-04-11T15:07:36.507Z,13.27
2019-04-11T15:10:34.140Z,13.00
2019-04-11T15:13:17.896Z,15.93
2019-04-11T15:16:15.264Z,16.30
2019-04-11T15:18:52.805Z,15.43
2019-04-11T15:21:44.248Z,13.83
2019-04-11T15:24:18.898Z,13.20
2019-04-11T15:27:06.559Z,12.00
2019-04-11T15:29:45.905Z,11.93
2019-04-11T15:32:43.171Z,15.33
2019-04-11T15:35:15.689Z,13.47
2019-04-11T15:38:04.042Z,13.67
2019-04-11T15:40:44.190Z,13.97
2019-04-11T15:43:42.011Z,15.37
2019-04-11T15:46:31.187Z,13.63
2019-04-11T15:49:33.177Z,18.37
2019-04-11T15:52:09.684Z,14.93
2019-04-11T15:54:58.005Z,16.30
2019-04-11T15:57:34.340Z,18.70
2019-04-11T16:00:34.331Z,15.10
2019-04-11T16:03:12.318Z,16.93
2019-04-11T16:06:11.221Z,14.77
2019-04-11T16:09:13.202Z,15.57
2019-04-11T16:12:18.359Z,14.17
2019-04-11T16:15:09.103Z,15.17
2019-04-11T16:18:01.552Z,16.07
2019-04-11T16:20:33.948Z,16.20
2019-04-11T16:23:26.319Z,13.17
2019-04-11T16:25:59.093Z,16.70
2019-04-11T16:28:47.568Z,17.43
2019-04-11T16:31:18.382Z,16.53
2019-04-11T16:33:56.072Z,14.37
2019-04-11T16:36:44.587Z,14.67
2019-04-11T16:39:52.058Z,14.80
2019-04-11T16:42:41.110Z,15.17
2019-04-11T16:45:38.290Z,15.70
2019-04-11T16:48:11.909Z,15.37
2019-04-11T16:50:42.657Z,14.40
2019-04-11T16:53:13.428Z,17.80
2019-04-11T16:55:44.231Z,15.63
2019-04-11T16:58:19.618Z,15.97
2019-04-11T17:00:53.330Z,15.43
2019-04-11T17:03:25.763Z,14.20
2019-04-11T17:06:04.412Z,17.90
2019-04-11T17:09:00.083Z,13.93
2019-04-11T17:11:30.871Z,13.63
2019-04-11T17:14:03.836Z,13.70
2019-04-11T17:16:35.413Z,13.77
2019-04-11T17:19:06.306Z,12.10
2019-04-11T17:21:43.074Z,12.93
2019-04-11T17:24:09.807Z,12.60
2019-04-11T17:26:42.357Z,12.53
2019-04-11T17:29:15.880Z,13.30
2019-04-11T17:31:47.316Z,15.83
2019-04-11T17:34:18.187Z,13.17
2019-04-11T17:36:49.069Z,13.77
2019-04-11T17:39:25.846Z,14.73
2019-04-11T17:41:56.724Z,11.53
2019-04-11T17:44:32.491Z,13.57
2019-04-11T17:47:04.022Z,12.80
2019-04-11T17:49:36.383Z,12.87
2019-04-11T17:52:09.753Z,12.70
2019-04-11T17:54:42.316Z,12.33
2019-04-11T17:57:13.139Z,14.50
2019-04-11T17:59:48.731Z,15.17
2019-04-11T18:02:19.489Z,13.63
2019-04-11T18:04:50.419Z,11.27
2019-04-11T18:07:21.418Z,12.10
2019-04-11T18:09:56.195Z,13.03
2019-04-11T18:12:26.840Z,12.60
2019-04-11T18:14:59.872Z,14.83
2019-04-11T18:17:29.978Z,12.47
2019-04-11T18:20:00.747Z,15.57
2019-04-11T18:23:50.667Z,14.07
2019-04-11T18:25:27.759Z,14.20
2019-04-11T18:28:00.103Z,12.93
2019-04-11T18:30:31.085Z,14.00
2019-04-11T18:33:01.822Z,12.07
2019-04-11T18:35:32.549Z,14.43
2019-04-11T18:38:03.499Z,12.43
2019-04-11T18:40:34.342Z,11.37
2019-04-11T18:43:07.538Z,15.43
2019-04-11T18:45:38.365Z,14.63
2019-04-11T18:48:09.091Z,12.00
2019-04-11T18:50:39.972Z,14.50
2019-04-11T18:53:10.734Z,12.33
2019-04-11T18:55:41.538Z,13.00
2019-04-11T18:58:12.292Z,13.43
2019-04-11T19:00:46.077Z,16.17
2019-04-11T19:03:17.830Z,13.03
2019-04-11T19:05:48.588Z,14.00
2019-04-11T19:08:21.959Z,18.10
2019-04-11T19:10:54.474Z,14.10
2019-04-11T19:13:31.040Z,15.07
2019-04-11T19:16:02.620Z,13.60
2019-04-11T19:18:36.070Z,12.03
2019-04-11T19:21:06.866Z,14.63
2019-04-11T19:23:42.298Z,14.33
2019-04-11T19:26:16.290Z,13.10
2019-04-11T19:29:00.195Z,14.47
2019-04-11T19:31:36.263Z,13.90
2019-04-11T19:34:17.742Z,13.63
2019-04-11T19:37:04.071Z,14.70
2019-04-11T19:39:45.162Z,13.47
2019-04-11T19:42:18.983Z,15.37
2019-04-11T19:44:49.687Z,14.93
2019-04-11T19:47:21.684Z,13.67
2019-04-11T19:49:53.227Z,13.80
2019-04-11T19:52:31.853Z,12.43
2019-04-11T19:55:09.328Z,15.63
2019-04-11T19:57:41.031Z,12.40
2019-04-11T20:00:22.054Z,15.13
2019-04-11T20:02:54.123Z,15.57
2019-04-11T20:05:25.516Z,14.53
2019-04-11T20:07:56.358Z,13.27
2019-04-11T20:10:31.380Z,13.40
2019-04-11T20:13:02.692Z,16.23
2019-04-11T20:15:37.197Z,13.77
2019-04-11T20:18:06.019Z,17.17
2019-04-11T20:20:37.603Z,14.27
2019-04-11T20:23:10.893Z,15.30
2019-04-11T20:25:48.973Z,14.63
2019-04-11T20:28:19.943Z,14.57
2019-04-11T20:30:49.967Z,15.50
2019-04-11T20:33:27.303Z,15.13
2019-04-11T20:35:54.210Z,18.77
2019-04-11T20:40:52.117Z,17.60
2019-04-11T20:43:25.443Z,14.03
2019-04-11T20:45:57.896Z,17.40
2019-04-11T20:48:27.426Z,14.40
2019-04-11T20:50:58.263Z,18.03
2019-04-11T20:53:29.964Z,16.83
2019-04-11T20:56:00.643Z,16.87
2019-04-11T20:58:31.440Z,17.50
2019-04-11T21:01:02.379Z,18.33
2019-04-11T21:03:33.263Z,15.77
2019-04-11T21:06:04.007Z,15.13
2019-04-11T21:08:36.722Z,13.63
2019-04-11T21:11:08.321Z,15.07
2019-04-11T21:13:39.068Z,13.93
2019-04-11T21:16:09.798Z,14.33
2019-04-11T21:18:40.567Z,17.00
2019-04-11T21:21:11.292Z,14.00
2019-04-11T21:23:42.095Z,13.40
2019-04-11T21:26:12.943Z,15.07
2019-04-11T21:28:58.758Z,14.93
2019-04-11T21:31:30.847Z,14.20
2019-04-11T21:34:02.290Z,17.77
2019-04-11T21:36:32.370Z,15.33
2019-04-11T21:39:05.662Z,15.77
2019-04-11T21:41:38.810Z,16.43
2019-04-11T21:44:09.587Z,15.90
2019-04-11T21:46:42.021Z,12.97
2019-04-11T21:49:12.946Z,15.23
2019-04-11T21:51:43.704Z,19.57
2019-04-11T21:54:15.815Z,13.30
2019-04-11T21:56:49.725Z,16.80
2019-04-11T21:59:20.958Z,16.10
2019-04-11T22:01:54.671Z,14.67
2019-04-11T22:04:27.503Z,16.00
2019-04-11T22:07:01.012Z,15.57
2019-04-11T22:09:33.046Z,15.63
2019-04-11T22:12:07.663Z,14.23
2019-04-11T22:14:41.243Z,14.17
2019-04-11T22:17:09.961Z,17.13
2019-04-11T22:19:45.302Z,13.90
2019-04-11T22:22:13.157Z,18.03
2019-04-11T22:24:43.899Z,14.83
2019-04-11T22:27:14.604Z,15.40
2019-04-11T22:29:45.312Z,14.10
2019-04-11T22:32:16.082Z,16.50
2019-04-11T22:34:47.306Z,17.87
2019-04-11T22:37:17.960Z,15.67
2019-04-11T22:39:48.677Z,15.57
2019-04-11T22:42:19.559Z,17.23
2019-04-11T22:44:50.292Z,14.20
2019-04-11T22:47:21.110Z,17.10
2019-04-11T22:49:51.933Z,14.87
2019-04-11T22:52:22.595Z,17.10
2019-04-11T22:54:54.447Z,13.23
2019-04-11T22:57:26.716Z,19.00
2019-04-11T23:00:00.561Z,17.80
2019-04-11T23:02:53.277Z,16.23
2019-04-11T23:05:24.117Z,15.17
2019-04-11T23:07:54.882Z,15.00
2019-04-11T23:10:25.577Z,16.90
2019-04-11T23:12:56.469Z,17.57
2019-04-11T23:15:27.192Z,18.40
2019-04-11T23:17:57.825Z,18.20
2019-04-11T23:20:30.943Z,20.10
2019-04-11T23:23:01.689Z,17.53
2019-04-11T23:25:33.093Z,17.07
2019-04-11T23:28:03.842Z,16.30
2019-04-11T23:30:36.283Z,16.80
2019-04-11T23:33:07.093Z,14.37
2019-04-11T23:35:37.850Z,17.03
2019-04-11T23:38:08.629Z,15.93
2019-04-11T23:40:39.490Z,15.63
2019-04-11T23:43:10.178Z,15.17
2019-04-11T23:45:40.917Z,17.17
2019-04-11T23:48:11.596Z,14.47
2019-04-11T23:50:42.427Z,14.50
2019-04-11T23:53:13.253Z,17.70
2019-04-11T23:55:43.990Z,17.67
2019-04-11T23:58:14.809Z,14.80
